Time;durP1;ratioP1;P1;durP2;ratioP2;P2;SDS_P1;SDS_P2;PMS_P1;PMS_P2;Temp;Humidity;BMP_temperature;BMP_pressure;BME280_temperature;BME280_humidity;BME280_pressure;Samples;Min_cycle;Max_cycle;Signal;HPM_P1;HPM_P2
2021/12/20 00:01:25;;;;;;;4.35;3.95;;;6.60;99.90;;;;;;4899402;29;20296;-62
2021/12/20 00:03:53;;;;;;;5.80;3.97;;;6.60;99.90;;;;;;4902511;29;20228;-62
2021/12/20 00:06:21;;;;;;;4.15;3.75;;;6.60;99.90;;;;;;4918208;29;20197;-62
2021/12/20 00:08:50;;;;;;;3.72;3.40;;;6.60;99.90;;;;;;4917419;29;20846;-62
2021/12/20 00:11:18;;;;;;;3.90;3.60;;;6.50;99.90;;;;;;4918277;29;20578;-62
2021/12/20 00:13:46;;;;;;;4.20;3.75;;;6.50;99.90;;;;;;4917786;29;20235;-62
2021/12/20 00:16:14;;;;;;;4.95;4.50;;;6.60;99.90;;;;;;4917975;29;20284;-62
2021/12/20 00:18:42;;;;;;;3.45;3.15;;;6.70;99.90;;;;;;4917822;29;20291;-62
2021/12/20 00:21:10;;;;;;;4.25;3.78;;;6.70;99.90;;;;;;4917897;29;20200;-62
2021/12/20 00:23:38;;;;;;;4.45;4.03;;;6.70;99.90;;;;;;4917651;29;20736;-62
2021/12/20 00:26:09;;;;;;;4.38;3.80;;;6.70;99.90;;;;;;4917769;29;20725;-62
2021/12/20 00:28:36;;;;;;;4.10;3.70;;;6.70;99.90;;;;;;4917623;29;20193;-62
2021/12/20 00:31:05;;;;;;;4.63;4.18;;;6.60;99.90;;;;;;4917454;29;20283;-62
2021/12/20 00:33:33;;;;;;;4.15;3.75;;;6.70;99.90;;;;;;4917304;29;20235;-62
2021/12/20 00:36:02;;;;;;;3.58;3.35;;;6.60;99.90;;;;;;4917590;29;20240;-62
2021/12/20 00:41:16;;;;;;;4.85;3.50;;;6.70;99.90;;;;;;4911132;29;20283;-62
2021/12/20 00:43:44;;;;;;;3.38;3.00;;;6.50;99.90;;;;;;4917484;29;20279;-62
2021/12/20 00:46:12;;;;;;;4.15;3.75;;;6.70;99.90;;;;;;4917345;29;20625;-62
2021/12/20 00:48:40;;;;;;;4.90;4.22;;;6.70;99.90;;;;;;4917188;29;20275;-62
2021/12/20 00:51:08;;;;;;;3.72;3.42;;;6.60;99.90;;;;;;4917164;29;20284;-62
2021/12/20 00:53:36;;;;;;;4.10;3.80;;;6.70;99.90;;;;;;4917026;29;20281;-62
2021/12/20 00:56:04;;;;;;;5.45;4.20;;;6.70;99.90;;;;;;4913319;29;20620;-62
2021/12/20 00:58:33;;;;;;;4.45;4.03;;;6.70;99.90;;;;;;4899040;29;20284;-62
2021/12/20 01:01:02;;;;;;;4.38;4.07;;;6.70;99.90;;;;;;4898153;29;20292;-62
2021/12/20 01:03:31;;;;;;;6.20;4.70;;;6.70;99.90;;;;;;4898439;29;20217;-62
2021/12/20 01:05:59;;;;;;;5.30;4.72;;;6.70;99.90;;;;;;4916953;29;20201;-62
2021/12/20 01:08:31;;;;;;;5.85;4.28;;;6.80;99.90;;;;;;4917241;29;20673;-62
2021/12/20 01:11:00;;;;;;;5.22;4.72;;;6.90;99.90;;;;;;4933761;23;20255;-72
2021/12/20 01:13:30;;;;;;;5.47;4.20;;;6.90;99.90;;;;;;4929647;29;20282;-73
2021/12/20 01:16:03;;;;;;;4.53;4.13;;;6.90;99.90;;;;;;4935720;29;20275;-73
2021/12/20 01:18:31;;;;;;;4.60;4.20;;;7.00;99.90;;;;;;4935591;29;20323;-70
2021/12/20 01:20:59;;;;;;;4.68;4.28;;;7.10;99.90;;;;;;4949039;29;20246;-72
2021/12/20 01:23:27;;;;;;;7.35;4.45;;;7.10;99.90;;;;;;4954374;29;20278;-72
2021/12/20 01:25:55;;;;;;;3.55;3.28;;;7.10;99.90;;;;;;4954706;29;20668;-72
2021/12/20 01:28:23;;;;;;;4.00;3.67;;;7.10;99.90;;;;;;4954570;29;20676;-72
2021/12/20 01:30:51;;;;;;;4.45;4.03;;;7.20;99.90;;;;;;4954494;29;20298;-75
2021/12/20 01:33:20;;;;;;;4.30;3.67;;;7.10;99.90;;;;;;4954357;29;20238;-76
2021/12/20 01:35:48;;;;;;;5.03;4.32;;;7.20;99.90;;;;;;4954673;29;20559;-75
2021/12/20 01:38:16;;;;;;;5.03;3.80;;;7.20;99.90;;;;;;4954568;29;20250;-75
2021/12/20 01:40:44;;;;;;;5.72;3.80;;;7.20;99.90;;;;;;4943553;29;20252;-76
2021/12/20 01:43:13;;;;;;;4.40;4.00;;;7.20;99.90;;;;;;4935311;29;20259;-76
2021/12/20 01:45:40;;;;;;;4.47;4.07;;;7.20;99.90;;;;;;4935275;29;20692;-75
2021/12/20 01:48:11;;;;;;;4.93;4.38;;;7.20;99.90;;;;;;4935145;29;20753;-72
2021/12/20 01:51:11;;;;;;;4.30;3.90;;;7.20;99.90;;;;;;4935185;29;20228;-73
2021/12/20 01:53:39;;;;;;;4.30;3.90;;;7.20;99.90;;;;;;4934557;29;20239;-72
2021/12/20 01:56:08;;;;;;;5.07;3.60;;;7.20;99.90;;;;;;4935350;29;20226;-72
2021/12/20 01:58:36;;;;;;;4.80;3.78;;;7.20;99.90;;;;;;4935331;29;20605;-72
2021/12/20 02:01:22;;;;;;;7.60;3.95;;;7.20;99.90;;;;;;4931252;29;20735;-73
2021/12/20 02:03:57;;;;;;;4.88;4.07;;;7.20;99.90;;;;;;4924565;29;20234;-72
2021/12/20 02:06:32;;;;;;;6.22;5.13;;;7.10;99.90;;;;;;4935263;29;20234;-72
2021/12/20 02:09:01;;;;;;;5.80;4.63;;;7.00;99.90;;;;;;4937844;29;20554;-71
2021/12/20 02:11:30;;;;;;;5.53;4.65;;;6.90;99.90;;;;;;4945883;29;20703;-71
2021/12/20 02:13:59;;;;;;;5.60;5.10;;;6.80;99.90;;;;;;4953683;29;20199;-72
2021/12/20 02:16:27;;;;;;;6.55;5.35;;;6.70;99.90;;;;;;4954214;29;20192;-72
2021/12/20 02:18:55;;;;;;;7.10;5.30;;;6.70;99.90;;;;;;4953744;29;20322;-72
2021/12/20 02:21:24;;;;;;;5.80;5.20;;;6.70;99.90;;;;;;4954064;29;20232;-71
2021/12/20 02:23:52;;;;;;;7.40;4.65;;;6.70;99.90;;;;;;4953313;29;20629;-71
2021/12/20 02:26:23;;;;;;;7.47;5.32;;;6.60;99.90;;;;;;4953771;29;20716;-72
2021/12/20 02:28:53;;;;;;;4.68;4.20;;;6.70;99.90;;;;;;4953779;29;20216;-72
2021/12/20 02:39:39;;;;;;;7.10;5.95;;;6.70;99.90;;;;;;4950650;29;20262;-72
2021/12/20 02:42:09;;;;;;;6.72;5.90;;;6.60;99.90;;;;;;4943399;29;20298;-72
2021/12/20 02:44:37;;;;;;;6.55;5.85;;;6.60;99.90;;;;;;4953533;29;20691;-72
2021/12/20 02:47:15;;;;;;;7.32;6.63;;;6.60;99.90;;;;;;4953646;29;20282;-72
2021/12/20 02:49:43;;;;;;;9.85;6.10;;;6.60;99.90;;;;;;4953811;29;20218;-75
2021/12/20 02:52:13;;;;;;;6.82;5.03;;;6.50;99.90;;;;;;4953389;29;20196;-74
2021/12/20 02:54:41;;;;;;;7.78;6.65;;;6.50;99.90;;;;;;4953387;29;20234;-73
2021/12/20 02:57:08;;;;;;;6.93;6.22;;;6.50;99.90;;;;;;4953779;29;20230;-74
2021/12/20 02:59:36;;;;;;;6.80;6.20;;;6.50;99.90;;;;;;4953453;29;20215;-74
2021/12/20 03:02:07;;;;;;;6.70;6.00;;;6.50;99.90;;;;;;4953134;29;20856;-73
2021/12/20 03:04:35;;;;;;;6.80;6.13;;;6.40;99.90;;;;;;4943995;29;20200;-73
2021/12/20 03:07:06;;;;;;;8.45;6.35;;;6.50;99.90;;;;;;4931386;29;20223;-72
2021/12/20 03:09:39;;;;;;;9.50;5.78;;;6.40;99.90;;;;;;4932916;29;20672;-73
2021/12/20 03:12:12;;;;;;;7.57;5.93;;;6.40;99.90;;;;;;4943468;29;20298;-73
2021/12/20 03:14:44;;;;;;;8.32;5.97;;;6.30;99.90;;;;;;4953210;28;20239;-73
2021/12/20 03:17:12;;;;;;;7.38;6.30;;;6.30;99.90;;;;;;4956799;29;20341;-73
2021/12/20 03:19:40;;;;;;;7.03;6.32;;;6.30;99.90;;;;;;4957263;29;20254;-73
2021/12/20 03:22:08;;;;;;;6.45;5.30;;;6.30;99.90;;;;;;4957280;29;20234;-74
2021/12/20 03:24:37;;;;;;;7.35;6.20;;;6.30;99.90;;;;;;4956797;29;20195;-74
2021/12/20 03:27:07;;;;;;;6.53;5.85;;;6.30;99.90;;;;;;4957291;29;20290;-73
2021/12/20 03:29:35;;;;;;;5.82;5.30;;;6.40;99.90;;;;;;4956973;29;20195;-74
2021/12/20 03:32:03;;;;;;;6.90;5.88;;;6.40;99.90;;;;;;4956999;29;20282;-73
2021/12/20 03:34:31;;;;;;;6.40;5.07;;;6.40;99.90;;;;;;4956823;29;20242;-72
2021/12/20 03:36:59;;;;;;;7.00;5.75;;;6.40;99.90;;;;;;4956995;29;20673;-74
2021/12/20 03:39:27;;;;;;;7.40;5.72;;;6.40;99.90;;;;;;4954347;29;20254;-74
2021/12/20 03:41:57;;;;;;;6.85;6.15;;;6.40;99.90;;;;;;4948930;29;20282;-73
2021/12/20 03:44:25;;;;;;;6.70;5.30;;;6.40;99.90;;;;;;4956596;29;20298;-72
2021/12/20 03:46:53;;;;;;;7.20;5.25;;;6.40;99.90;;;;;;4956384;29;20227;-72
2021/12/20 03:49:21;;;;;;;6.93;5.30;;;6.40;99.90;;;;;;4956557;29;20294;-71
2021/12/20 03:51:48;;;;;;;6.65;5.30;;;6.40;99.90;;;;;;4956560;29;20238;-72
2021/12/20 03:54:17;;;;;;;4.68;3.90;;;6.40;99.90;;;;;;4956041;29;20242;-73
2021/12/20 03:56:46;;;;;;;6.50;4.47;;;6.40;99.90;;;;;;4939292;29;20207;-74
2021/12/20 03:59:15;;;;;;;4.85;4.28;;;6.40;99.90;;;;;;4956225;29;20223;-72
2021/12/20 04:01:43;;;;;;;7.70;5.00;;;6.40;99.90;;;;;;4956265;29;20234;-72
2021/12/20 04:04:11;;;;;;;5.03;3.80;;;6.50;99.90;;;;;;4949862;29;20220;-73
2021/12/20 04:06:39;;;;;;;4.47;4.05;;;6.50;99.90;;;;;;4936953;29;20309;-73
2021/12/20 04:09:07;;;;;;;10.00;4.32;;;6.50;99.90;;;;;;4934317;29;20636;-74
2021/12/20 04:11:35;;;;;;;8.10;3.70;;;6.50;99.90;;;;;;4934431;29;20270;-72
2021/12/20 04:14:04;;;;;;;5.45;4.20;;;6.40;99.90;;;;;;4934818;29;20254;-73
2021/12/20 04:16:34;;;;;;;5.82;5.18;;;6.40;99.90;;;;;;4920667;29;20299;-73
2021/12/20 04:19:01;;;;;;;6.90;4.70;;;6.30;99.90;;;;;;4936782;29;20243;-73
2021/12/20 04:21:31;;;;;;;10.38;5.43;;;6.30;99.90;;;;;;4936684;29;20220;-74
2021/12/20 04:23:58;;;;;;;7.22;4.72;;;6.30;99.90;;;;;;4936549;29;20299;-74
2021/12/20 04:26:26;;;;;;;7.07;4.63;;;6.30;99.90;;;;;;4936381;29;20305;-74
2021/12/20 04:28:54;;;;;;;8.40;5.00;;;6.30;99.90;;;;;;4936595;29;20276;-72
2021/12/20 04:31:23;;;;;;;8.18;5.00;;;6.30;99.90;;;;;;4936573;29;20263;-74
2021/12/20 04:33:52;;;;;;;4.53;4.05;;;6.40;99.90;;;;;;4936157;29;20231;-73
2021/12/20 04:36:20;;;;;;;13.43;5.50;;;6.30;99.90;;;;;;4936467;29;20748;-72
2021/12/20 04:38:48;;;;;;;10.52;5.65;;;6.40;99.90;;;;;;4936347;29;20235;-71
2021/12/20 04:41:16;;;;;;;8.38;5.07;;;6.40;99.90;;;;;;4944093;29;20219;-73
2021/12/20 04:43:43;;;;;;;7.28;5.85;;;6.40;99.90;;;;;;4952729;29;20227;-72
2021/12/20 04:46:11;;;;;;;7.25;4.82;;;6.30;99.90;;;;;;4955410;29;20631;-73
2021/12/20 04:48:39;;;;;;;8.38;5.72;;;6.40;99.90;;;;;;4955582;29;20227;-71
2021/12/20 04:51:09;;;;;;;7.75;5.65;;;6.30;99.90;;;;;;4955587;29;20226;-73
2021/12/20 04:53:37;;;;;;;11.35;5.43;;;6.30;99.90;;;;;;4955012;29;20231;-74
2021/12/20 04:56:05;;;;;;;8.55;3.70;;;6.30;99.90;;;;;;4955436;29;20191;-74
2021/12/20 04:58:33;;;;;;;10.60;5.22;;;6.20;99.90;;;;;;4955309;29;20238;-72
2021/12/20 05:01:01;;;;;;;8.15;4.85;;;6.20;99.90;;;;;;4955076;29;20326;-72
2021/12/20 05:03:29;;;;;;;8.07;3.95;;;6.20;99.90;;;;;;4954291;29;20294;-73
2021/12/20 05:05:57;;;;;;;7.80;4.32;;;6.20;99.90;;;;;;4936118;29;20200;-73
2021/12/20 05:08:33;;;;;;;10.40;3.17;;;6.10;99.90;;;;;;4936113;29;20220;-71
2021/12/20 05:11:01;;;;;;;10.05;3.20;;;6.10;99.90;;;;;;4936038;29;20897;-72
2021/12/20 05:13:29;;;;;;;15.15;3.97;;;6.10;99.90;;;;;;4949782;29;20239;-72
2021/12/20 05:15:57;;;;;;;11.57;3.75;;;6.10;99.90;;;;;;4955029;29;20278;-73
2021/12/20 05:18:25;;;;;;;7.07;2.88;;;6.10;99.90;;;;;;4952680;29;20607;-70
2021/12/20 05:20:52;;;;;;;5.72;3.20;;;6.10;99.90;;;;;;4932441;29;20227;-72
2021/12/20 05:23:20;;;;;;;7.70;2.97;;;6.10;99.90;;;;;;4930356;29;20865;-73
2021/12/20 05:25:50;;;;;;;9.45;3.13;;;6.10;99.90;;;;;;4925453;29;20231;-72
2021/12/20 05:28:18;;;;;;;8.45;3.03;;;6.10;99.90;;;;;;4944303;29;20307;-72
2021/12/20 05:30:49;;;;;;;5.63;3.00;;;6.10;99.90;;;;;;4929857;29;20598;-72
2021/12/20 05:33:17;;;;;;;10.55;2.72;;;6.20;99.90;;;;;;4938024;29;20716;-72
2021/12/20 05:35:45;;;;;;;13.32;3.20;;;6.10;99.90;;;;;;4935311;29;20258;-74
2021/12/20 05:38:13;;;;;;;11.40;2.75;;;6.10;99.90;;;;;;4942242;28;20294;-72
2021/12/20 05:40:42;;;;;;;11.48;3.80;;;6.10;99.90;;;;;;4941300;29;20265;-74
2021/12/20 05:43:11;;;;;;;8.63;3.20;;;6.00;99.90;;;;;;4938220;29;20195;-73
2021/12/20 05:45:39;;;;;;;8.93;3.08;;;5.90;99.90;;;;;;4935378;29;20240;-73
2021/12/20 05:48:07;;;;;;;11.95;3.30;;;5.90;99.90;;;;;;4941578;29;20323;-73
2021/12/20 05:50:35;;;;;;;17.50;4.53;;;5.80;99.90;;;;;;4949235;29;20227;-70
2021/12/20 05:53:03;;;;;;;14.85;3.38;;;5.70;99.90;;;;;;4942035;29;20574;-70
2021/12/20 05:55:31;;;;;;;13.50;3.90;;;5.70;99.90;;;;;;4932215;29;20294;-70
2021/12/20 05:57:59;;;;;;;13.00;3.88;;;5.80;99.90;;;;;;4938407;29;20294;-72
2021/12/20 06:00:28;;;;;;;12.48;3.35;;;5.70;99.90;;;;;;4929712;29;20270;-70
2021/12/20 06:02:56;;;;;;;11.75;4.28;;;5.70;99.90;;;;;;4929725;29;20200;-73
2021/12/20 06:05:24;;;;;;;20.35;3.80;;;5.60;99.90;;;;;;4936952;29;20210;-73
2021/12/20 06:07:52;;;;;;;13.57;3.88;;;5.60;99.90;;;;;;4940871;29;20223;-73
2021/12/20 06:10:20;;;;;;;10.50;3.85;;;5.60;99.90;;;;;;4941502;29;20445;-73
2021/12/20 06:12:48;;;;;;;14.60;4.13;;;5.60;99.90;;;;;;4940515;29;20222;-72
2021/12/20 06:15:16;;;;;;;11.02;3.83;;;5.50;99.90;;;;;;4929428;29;20218;-73
2021/12/20 06:17:46;;;;;;;13.23;4.40;;;5.50;99.90;;;;;;4940301;29;20271;-73
2021/12/20 06:20:15;;;;;;;14.55;4.18;;;5.50;99.90;;;;;;4928989;29;20230;-74
2021/12/20 06:22:43;;;;;;;14.10;3.95;;;5.50;99.90;;;;;;4929225;29;20243;-73
2021/12/20 06:25:12;;;;;;;12.88;4.22;;;5.50;99.90;;;;;;4922660;29;20229;-72
2021/12/20 06:27:40;;;;;;;16.55;3.88;;;5.50;99.90;;;;;;4925170;29;20677;-72
2021/12/20 06:30:10;;;;;;;17.70;4.45;;;5.40;99.90;;;;;;4929249;29;20728;-72
2021/12/20 06:32:38;;;;;;;15.45;4.35;;;5.30;99.90;;;;;;4928896;29;20275;-72
2021/12/20 06:35:27;;;;;;;11.90;3.75;;;5.30;99.90;;;;;;4932281;29;20215;-72
2021/12/20 06:38:00;;;;;;;10.20;3.83;;;5.20;99.90;;;;;;4940587;29;20282;-72
2021/12/20 06:40:29;;;;;;;14.15;3.97;;;5.20;99.90;;;;;;4940813;29;20699;-71
2021/12/20 06:42:57;;;;;;;15.23;4.20;;;5.10;99.90;;;;;;4940267;29;20195;-72
2021/12/20 06:45:29;;;;;;;9.07;4.00;;;5.00;99.90;;;;;;4934793;29;20273;-71
2021/12/20 06:47:57;;;;;;;12.38;4.00;;;4.90;99.90;;;;;;4929656;29;20234;-72
2021/12/20 06:50:27;;;;;;;13.65;3.17;;;4.90;99.90;;;;;;4933208;29;20228;-70
2021/12/20 06:52:56;;;;;;;19.27;5.10;;;4.80;99.90;;;;;;4935722;29;20223;-71
2021/12/20 06:55:24;;;;;;;19.17;3.75;;;4.70;99.90;;;;;;4941663;29;20207;-73
2021/12/20 06:57:53;;;;;;;24.25;5.25;;;4.70;99.90;;;;;;4946781;28;20199;-71
2021/12/20 07:00:23;;;;;;;15.50;4.85;;;4.60;99.90;;;;;;4955220;29;20231;-72
2021/12/20 07:02:51;;;;;;;15.45;4.88;;;4.60;99.90;;;;;;4955310;29;20782;-71
2021/12/20 07:05:23;;;;;;;19.42;4.88;;;4.50;99.90;;;;;;4942430;28;20230;-71
2021/12/20 07:07:53;;;;;;;12.82;4.00;;;4.50;99.90;;;;;;4947611;29;20767;-73
2021/12/20 07:10:21;;;;;;;12.68;4.68;;;4.50;99.90;;;;;;4969464;23;20322;-64
2021/12/20 07:12:50;;;;;;;14.50;4.03;;;4.40;99.90;;;;;;4937475;29;20227;-62
2021/12/20 07:15:19;;;;;;;20.48;5.72;;;4.50;99.90;;;;;;4945840;28;20580;-63
2021/12/20 07:17:46;;;;;;;10.45;4.00;;;4.50;99.90;;;;;;4945371;29;20267;-63
2021/12/20 07:20:14;;;;;;;14.40;5.50;;;4.40;99.90;;;;;;4953120;29;20230;-63
2021/12/20 07:22:42;;;;;;;14.18;5.32;;;4.40;99.90;;;;;;4939463;29;20279;-63
2021/12/20 07:25:12;;;;;;;15.27;4.75;;;4.30;99.90;;;;;;4940028;29;20234;-63
2021/12/20 07:27:44;;;;;;;12.15;5.22;;;4.20;99.90;;;;;;4936005;29;20210;-66
2021/12/20 07:30:13;;;;;;;13.25;4.43;;;4.20;99.90;;;;;;4938295;29;20222;-63
2021/12/20 07:32:40;;;;;;;14.90;4.25;;;4.10;99.90;;;;;;4937195;29;20698;-64
2021/12/20 07:35:09;;;;;;;14.63;4.70;;;4.10;99.90;;;;;;4939233;29;20228;-64
2021/12/20 07:37:37;;;;;;;14.10;5.10;;;4.10;99.90;;;;;;4940179;29;20283;-64
2021/12/20 07:40:07;;;;;;;18.90;5.47;;;4.10;99.90;;;;;;4939834;29;20227;-64
2021/12/20 07:42:36;;;;;;;14.65;5.40;;;4.10;99.90;;;;;;4931783;29;20574;-64
2021/12/20 07:45:05;;;;;;;14.95;6.75;;;4.10;99.90;;;;;;4939963;29;20290;-63
2021/12/20 07:47:46;;;;;;;17.73;6.32;;;4.00;99.90;;;;;;4940154;29;20196;-64
2021/12/20 07:50:14;;;;;;;15.57;6.68;;;3.90;99.90;;;;;;4940091;29;20212;-63
2021/12/20 07:52:42;;;;;;;14.10;5.40;;;4.00;99.90;;;;;;4939856;29;20620;-65
2021/12/20 07:55:11;;;;;;;17.55;6.53;;;4.10;99.90;;;;;;4939791;29;20303;-65
2021/12/20 07:57:40;;;;;;;15.38;5.35;;;4.30;99.90;;;;;;4939966;29;20283;-65
2021/12/20 08:00:10;;;;;;;24.50;6.20;;;4.40;99.90;;;;;;4939800;29;20210;-65
2021/12/20 08:02:38;;;;;;;15.68;6.53;;;4.60;99.90;;;;;;4936052;29;20310;-65
2021/12/20 08:05:07;;;;;;;16.75;7.05;;;4.70;99.90;;;;;;4936885;29;20200;-65
2021/12/20 08:07:35;;;;;;;14.27;6.20;;;4.70;99.90;;;;;;4937081;29;20224;-65
2021/12/20 08:10:03;;;;;;;17.15;5.75;;;4.80;99.90;;;;;;4936418;29;20286;-65
2021/12/20 08:12:31;;;;;;;16.83;6.35;;;4.90;99.90;;;;;;4928326;29;20204;-65
2021/12/20 08:15:00;;;;;;;19.58;5.47;;;5.00;99.90;;;;;;4936667;29;20228;-64
2021/12/20 08:17:31;;;;;;;18.27;5.15;;;5.00;99.90;;;;;;4936684;29;20211;-64
2021/12/20 08:19:59;;;;;;;16.08;4.85;;;5.00;99.90;;;;;;4936622;29;20210;-65
2021/12/20 08:22:28;;;;;;;19.85;4.82;;;5.10;99.90;;;;;;4936328;29;20291;-65
2021/12/20 08:24:55;;;;;;;12.48;4.32;;;5.30;99.90;;;;;;4936356;29;20223;-65
2021/12/20 08:27:23;;;;;;;14.60;4.15;;;5.40;99.90;;;;;;4936419;29;20227;-65
2021/12/20 08:29:51;;;;;;;9.75;3.67;;;5.50;99.90;;;;;;4936427;29;20232;-64
2021/12/20 08:32:21;;;;;;;18.52;4.85;;;5.60;99.90;;;;;;4936258;29;20642;-65
2021/12/20 08:34:53;;;;;;;13.50;4.38;;;5.80;99.90;;;;;;4936398;29;20295;-65
2021/12/20 08:37:21;;;;;;;22.48;6.05;;;6.00;99.90;;;;;;4936444;29;20682;-64
2021/12/20 08:39:49;;;;;;;15.57;4.43;;;6.00;99.90;;;;;;4936065;29;20212;-65
2021/12/20 08:42:19;;;;;;;12.43;4.30;;;6.10;99.90;;;;;;4927805;29;20668;-65
2021/12/20 08:44:47;;;;;;;17.05;4.57;;;6.20;99.90;;;;;;4936017;29;20234;-65
2021/12/20 08:47:15;;;;;;;17.25;4.63;;;6.30;99.90;;;;;;4936174;29;20765;-65
2021/12/20 08:49:45;;;;;;;14.95;3.78;;;6.60;99.90;;;;;;4936093;29;20235;-65
2021/12/20 08:52:13;;;;;;;11.68;4.10;;;6.70;99.90;;;;;;4935629;29;20295;-65
2021/12/20 08:54:41;;;;;;;16.27;4.68;;;6.80;99.90;;;;;;4935838;29;20228;-64
2021/12/20 08:57:10;;;;;;;15.30;3.65;;;7.10;99.90;;;;;;4936019;29;20279;-65
2021/12/20 08:59:38;;;;;;;11.63;3.72;;;7.20;99.90;;;;;;4936037;29;20200;-65
2021/12/20 09:02:07;;;;;;;12.80;4.03;;;7.30;99.90;;;;;;4935464;29;20258;-65
2021/12/20 09:04:36;;;;;;;12.73;4.78;;;7.40;99.90;;;;;;4935615;29;20214;-65
2021/12/20 09:07:08;;;;;;;19.45;4.32;;;7.40;99.90;;;;;;4935651;29;20199;-65
2021/12/20 09:09:38;;;;;;;10.18;3.65;;;7.70;99.90;;;;;;4935838;29;20244;-64
2021/12/20 09:12:08;;;;;;;22.73;5.53;;;7.90;99.90;;;;;;4923981;29;20634;-65
2021/12/20 09:14:36;;;;;;;14.95;4.40;;;7.90;99.90;;;;;;4915589;29;20287;-66
2021/12/20 09:17:05;;;;;;;10.35;3.67;;;8.00;99.90;;;;;;4916330;29;20228;-65
2021/12/20 09:19:35;;;;;;;9.82;3.90;;;8.10;99.90;;;;;;4916597;29;20232;-65
2021/12/20 09:22:06;;;;;;;16.42;3.10;;;8.20;99.90;;;;;;4916285;29;20420;-65
2021/12/20 09:24:35;;;;;;;16.38;3.72;;;8.20;99.90;;;;;;4916643;29;20248;-66
2021/12/20 09:27:04;;;;;;;11.35;3.38;;;8.30;99.90;;;;;;4916290;29;20236;-65
2021/12/20 09:29:33;;;;;;;10.63;3.72;;;8.50;99.90;;;;;;4916225;29;20697;-65
2021/12/20 09:32:02;;;;;;;8.10;3.03;;;8.70;99.90;;;;;;4915933;29;20276;-65
2021/12/20 09:34:30;;;;;;;9.00;2.75;;;9.10;99.90;;;;;;4916424;29;20219;-65
2021/12/20 09:37:04;;;;;;;9.32;3.40;;;9.20;99.90;;;;;;4916138;29;20287;-63
2021/12/20 09:39:37;;;;;;;15.90;3.70;;;9.20;99.90;;;;;;4916023;29;20626;-65
2021/12/20 09:42:06;;;;;;;14.98;3.50;;;9.40;99.90;;;;;;4923074;29;20212;-66
2021/12/20 09:44:34;;;;;;;14.93;4.03;;;9.40;99.90;;;;;;4916483;29;20205;-65
2021/12/20 09:47:03;;;;;;;10.02;4.35;;;9.50;99.90;;;;;;4915948;29;20284;-65
2021/12/20 09:49:33;;;;;;;11.68;3.45;;;9.50;99.90;;;;;;4916389;29;20204;-65
2021/12/20 09:52:01;;;;;;;7.53;2.88;;;9.50;99.90;;;;;;4915270;29;20315;-65
2021/12/20 09:54:30;;;;;;;10.25;3.30;;;9.40;99.90;;;;;;4915803;29;20227;-65
2021/12/20 09:57:02;;;;;;;12.38;3.30;;;9.40;99.90;;;;;;4915947;29;20893;-65
2021/12/20 09:59:32;;;;;;;11.23;3.70;;;9.60;99.90;;;;;;4916084;29;20237;-65
2021/12/20 10:02:00;;;;;;;18.23;4.00;;;9.60;99.90;;;;;;4915069;29;20315;-65
2021/12/20 10:04:28;;;;;;;11.63;3.80;;;9.60;99.90;;;;;;4915714;29;20696;-65
2021/12/20 10:06:59;;;;;;;9.10;2.72;;;9.60;99.90;;;;;;4915836;29;20232;-65
2021/12/20 10:09:31;;;;;;;9.27;3.05;;;9.60;99.90;;;;;;4915126;29;20243;-65
2021/12/20 10:12:16;;;;;;;10.75;2.88;;;9.70;99.90;;;;;;4940537;29;20259;-64
2021/12/20 10:14:57;;;;;;;5.50;2.42;;;9.90;99.90;;;;;;4945741;29;20360;-64
2021/12/20 10:17:28;;;;;;;8.35;2.80;;;9.80;99.90;;;;;;4953781;29;20199;-65
2021/12/20 10:19:56;;;;;;;7.28;2.42;;;9.60;99.90;;;;;;4953420;29;20208;-65
2021/12/20 10:22:28;;;;;;;10.98;3.10;;;9.60;99.90;;;;;;4953300;29;20258;-65
2021/12/20 10:24:57;;;;;;;8.88;2.70;;;9.50;99.90;;;;;;4953199;28;20623;-65
2021/12/20 10:27:31;;;;;;;8.00;2.80;;;9.40;99.90;;;;;;4953623;29;20747;-65
2021/12/20 10:30:00;;;;;;;8.32;2.30;;;9.20;99.90;;;;;;4953407;29;20243;-65
2021/12/20 10:32:39;;;;;;;11.32;2.50;;;9.20;99.90;;;;;;4953546;29;20203;-65
2021/12/20 10:35:29;;;;;;;7.05;2.55;;;9.20;99.90;;;;;;4953471;29;20278;-65
2021/12/20 10:38:00;;;;;;;9.52;2.67;;;9.10;99.90;;;;;;4953437;29;20204;-65
2021/12/20 10:40:29;;;;;;;6.88;2.33;;;9.30;99.90;;;;;;4931784;29;20306;-65
2021/12/20 10:42:59;;;;;;;7.85;2.35;;;9.40;99.90;;;;;;4925842;29;20235;-65
2021/12/20 10:45:28;;;;;;;8.23;2.63;;;9.40;99.90;;;;;;4934371;29;20230;-65
2021/12/20 10:48:08;;;;;;;6.65;2.60;;;9.30;99.90;;;;;;4934120;29;20295;-65
2021/12/20 10:50:42;;;;;;;6.93;1.52;;;9.50;99.90;;;;;;4934341;29;20310;-65
2021/12/20 10:53:19;;;;;;;4.47;1.50;;;9.40;99.90;;;;;;4933796;29;20199;-65
2021/12/20 10:55:49;;;;;;;4.43;1.65;;;9.30;99.90;;;;;;4934153;29;20283;-65
2021/12/20 10:58:33;;;;;;;6.88;1.70;;;9.40;99.90;;;;;;4934015;29;20199;-65
2021/12/20 11:01:07;;;;;;;5.57;1.88;;;9.40;99.90;;;;;;4934082;29;20294;-65
2021/12/20 11:03:38;;;;;;;4.50;1.45;;;9.20;99.90;;;;;;4933569;29;20314;-65
2021/12/20 11:06:38;;;;;;;6.78;1.50;;;9.30;99.90;;;;;;4933823;29;20208;-65
2021/12/20 11:09:13;;;;;;;2.75;1.15;;;9.50;99.90;;;;;;4933691;29;20235;-65
2021/12/20 11:11:45;;;;;;;3.47;1.50;;;9.40;99.90;;;;;;4925676;29;20317;-65
2021/12/20 11:14:15;;;;;;;7.50;1.42;;;9.30;99.90;;;;;;4933655;29;20652;-65
2021/12/20 11:16:46;;;;;;;5.80;2.03;;;9.40;99.90;;;;;;4933735;29;20196;-65
2021/12/20 11:19:23;;;;;;;6.05;1.83;;;9.50;99.90;;;;;;4934091;29;20238;-65
2021/12/20 11:21:54;;;;;;;5.43;1.50;;;9.40;99.90;;;;;;4933787;29;20302;-65
2021/12/20 11:24:25;;;;;;;7.40;1.90;;;9.70;99.90;;;;;;4933562;29;20255;-65
2021/12/20 11:26:54;;;;;;;4.88;2.03;;;10.10;99.90;;;;;;4933903;29;20267;-65
2021/12/20 11:29:24;;;;;;;5.05;2.10;;;10.30;99.90;;;;;;4933731;29;20295;-65
2021/12/20 11:31:53;;;;;;;2.90;1.20;;;10.70;99.10;;;;;;4933680;29;20291;-66
2021/12/20 11:34:21;;;;;;;3.70;1.30;;;10.50;98.00;;;;;;4933778;29;20629;-65
2021/12/20 11:36:49;;;;;;;3.08;1.30;;;10.80;97.50;;;;;;4934848;29;20657;-65
2021/12/20 11:39:18;;;;;;;2.25;1.00;;;10.90;97.30;;;;;;4937347;29;20211;-65
2021/12/20 11:41:46;;;;;;;3.00;1.13;;;11.00;96.60;;;;;;4929127;29;20244;-65
2021/12/20 11:44:17;;;;;;;4.30;1.60;;;10.60;96.00;;;;;;4937137;29;20306;-65
2021/12/20 11:47:16;;;;;;;4.07;1.10;;;10.70;96.00;;;;;;4937145;29;20702;-65
2021/12/20 11:49:44;;;;;;;4.53;1.90;;;10.60;96.00;;;;;;4931654;29;20258;-65
2021/12/20 11:52:17;;;;;;;2.40;1.25;;;10.70;95.70;;;;;;4936673;29;20311;-65
2021/12/20 11:54:48;;;;;;;6.03;2.35;;;10.50;94.50;;;;;;4937247;29;20626;-65
2021/12/20 11:57:42;;;;;;;3.53;1.52;;;10.20;94.30;;;;;;4936913;29;20684;-65
2021/12/20 12:00:25;;;;;;;1.48;1.05;;;10.20;94.60;;;;;;4936974;29;20231;-65
2021/12/20 12:02:57;;;;;;;2.30;1.17;;;10.10;94.80;;;;;;4936667;29;20632;-65
2021/12/20 12:05:36;;;;;;;4.15;1.20;;;10.30;95.30;;;;;;4937161;29;20188;-67
2021/12/20 12:08:33;;;;;;;3.10;1.10;;;10.50;94.70;;;;;;4936893;29;20231;-65
2021/12/20 12:11:29;;;;;;;2.83;1.38;;;10.40;94.00;;;;;;4921452;29;20323;-65
2021/12/20 12:14:07;;;;;;;6.97;1.58;;;10.30;94.00;;;;;;4935754;29;20291;-65
2021/12/20 12:16:53;;;;;;;2.45;1.05;;;10.10;93.90;;;;;;4936550;29;20630;-65
2021/12/20 12:19:39;;;;;;;2.78;1.33;;;9.50;94.10;;;;;;4936403;29;20211;-65
2021/12/20 12:22:35;;;;;;;3.53;0.98;;;8.80;95.30;;;;;;4935374;29;20249;-65
2021/12/20 12:25:07;;;;;;;2.65;1.20;;;8.10;96.30;;;;;;4936516;29;20224;-65
2021/12/20 12:27:37;;;;;;;4.05;1.02;;;7.80;97.30;;;;;;4936667;29;20227;-64
2021/12/20 12:30:30;;;;;;;4.80;1.35;;;7.50;97.90;;;;;;4936464;29;20200;-64
2021/12/20 12:33:17;;;;;;;7.93;1.67;;;7.30;97.60;;;;;;4936306;29;20207;-64
2021/12/20 12:35:53;;;;;;;6.63;1.45;;;7.10;98.60;;;;;;4936442;29;20282;-62
2021/12/20 12:38:24;;;;;;;3.35;1.55;;;7.00;99.70;;;;;;4936219;29;20282;-65
2021/12/20 12:41:09;;;;;;;7.40;2.00;;;6.90;99.90;;;;;;4934351;29;20311;-65
2021/12/20 12:43:53;;;;;;;4.32;1.10;;;6.80;99.90;;;;;;4932357;29;20303;-65
2021/12/20 12:46:50;;;;;;;4.32;1.55;;;6.80;99.90;;;;;;4935981;29;20287;-65
2021/12/20 12:49:38;;;;;;;4.93;1.70;;;6.70;99.90;;;;;;4935997;29;20227;-64
2021/12/20 12:52:11;;;;;;;5.13;1.70;;;6.50;99.80;;;;;;4935672;29;20258;-64
2021/12/20 12:55:02;;;;;;;1.65;1.40;;;6.50;99.70;;;;;;4936053;29;20539;-64
2021/12/20 12:57:33;;;;;;;7.22;1.88;;;6.40;99.90;;;;;;4935525;29;20730;-64
2021/12/20 13:00:25;;;;;;;4.80;1.42;;;6.40;99.90;;;;;;4935994;29;20231;-65
2021/12/20 13:02:59;;;;;;;7.18;1.63;;;6.20;99.90;;;;;;4928286;29;20255;-65
2021/12/20 13:05:28;;;;;;;2.95;1.75;;;6.20;99.90;;;;;;4936066;29;20275;-65
2021/12/20 13:08:01;;;;;;;6.47;1.92;;;6.20;99.90;;;;;;4935671;29;20228;-65
2021/12/20 13:10:36;;;;;;;2.85;1.40;;;6.20;99.90;;;;;;4957642;23;20242;-66
2021/12/20 13:13:08;;;;;;;6.75;2.35;;;7.00;99.90;;;;;;4910919;29;20200;-66
2021/12/20 13:15:41;;;;;;;5.50;2.15;;;6.20;99.90;;;;;;4920057;29;20299;-68
2021/12/20 13:18:13;;;;;;;6.88;2.58;;;6.20;99.90;;;;;;4916780;29;20661;-67
2021/12/20 13:20:50;;;;;;;4.80;2.00;;;6.10;99.90;;;;;;4916530;29;20217;-67
2021/12/20 13:23:21;;;;;;;10.40;2.22;;;6.10;99.90;;;;;;4916332;29;20205;-68